createdAt,value
2017-07-24T00:01:13.655Z,75.30
2017-07-24T00:03:41.191Z,75.50
2017-07-24T00:06:08.725Z,75.50
2017-07-24T00:08:36.323Z,75.40
2017-07-24T00:11:03.857Z,75.10
2017-07-24T00:13:31.439Z,74.60
2017-07-24T00:15:58.970Z,74.80
2017-07-24T00:18:26.500Z,74.70
2017-07-24T00:20:54.069Z,74.60
2017-07-24T00:23:21.601Z,74.60
2017-07-24T00:25:49.134Z,74.90
2017-07-24T00:28:16.691Z,75.00
2017-07-24T00:30:44.227Z,74.60
2017-07-24T00:33:11.803Z,74.50
2017-07-24T00:35:39.334Z,74.60
2017-07-24T00:38:06.870Z,74.50
2017-07-24T00:40:34.437Z,74.60
2017-07-24T00:43:01.967Z,74.50
2017-07-24T00:45:29.498Z,74.20
2017-07-24T00:48:00.642Z,74.30
2017-07-24T00:50:28.176Z,74.50
2017-07-24T00:52:55.754Z,74.00
2017-07-24T00:55:23.281Z,74.20
2017-07-24T00:57:50.818Z,74.20
2017-07-24T01:00:18.383Z,74.50
2017-07-24T01:02:45.914Z,73.80
2017-07-24T01:05:13.482Z,73.90
2017-07-24T01:07:41.009Z,73.80
2017-07-24T01:10:08.541Z,74.10
2017-07-24T01:12:36.110Z,74.10
2017-07-24T01:15:03.645Z,74.40
2017-07-24T01:17:31.178Z,74.00
2017-07-24T01:19:58.747Z,74.20
2017-07-24T01:22:26.284Z,74.90
2017-07-24T01:24:53.815Z,75.10
2017-07-24T01:27:21.381Z,75.70
2017-07-24T01:29:48.915Z,75.80
2017-07-24T01:32:16.491Z,76.40
2017-07-24T01:34:44.027Z,77.20
2017-07-24T01:37:11.562Z,77.00
2017-07-24T01:39:39.124Z,76.70
2017-07-24T01:42:06.658Z,77.00
2017-07-24T01:44:34.234Z,76.90
2017-07-24T01:47:01.767Z,77.80
2017-07-24T01:49:29.332Z,78.10
2017-07-24T01:51:56.906Z,77.60
2017-07-24T01:54:24.442Z,78.80
2017-07-24T01:56:51.976Z,79.60
2017-07-24T01:59:19.549Z,79.70
2017-07-24T02:01:47.086Z,79.30
2017-07-24T02:04:14.628Z,79.40
2017-07-24T02:06:42.190Z,79.50
2017-07-24T02:09:09.721Z,79.90
2017-07-24T02:11:37.289Z,79.90
2017-07-24T02:14:04.863Z,80.40
2017-07-24T02:16:32.395Z,81.70
2017-07-24T02:18:59.930Z,82.00
2017-07-24T02:21:27.509Z,81.40
2017-07-24T02:23:55.043Z,81.20
2017-07-24T02:26:22.577Z,82.40
2017-07-24T02:28:50.142Z,80.50
2017-07-24T02:31:17.716Z,82.10
2017-07-24T02:33:45.245Z,81.70
2017-07-24T02:36:12.790Z,81.00
2017-07-24T02:38:40.355Z,81.90
2017-07-24T02:41:07.918Z,81.80
2017-07-24T02:43:35.494Z,81.90
2017-07-24T02:46:03.021Z,83.90
2017-07-24T02:48:30.554Z,84.10
2017-07-24T02:50:58.123Z,84.40
2017-07-24T02:53:25.649Z,85.30
2017-07-24T02:55:53.186Z,84.60
2017-07-24T02:58:20.762Z,85.10
2017-07-24T03:00:48.290Z,85.10
2017-07-24T03:03:15.828Z,86.40
2017-07-24T03:05:43.395Z,86.10
2017-07-24T03:08:10.931Z,86.20
2017-07-24T03:10:38.500Z,85.70
2017-07-24T03:13:06.057Z,84.80
2017-07-24T03:15:33.583Z,84.90
2017-07-24T03:18:01.161Z,85.50
2017-07-24T03:20:28.695Z,85.70
2017-07-24T03:22:56.230Z,85.20
2017-07-24T03:25:23.806Z,85.20
2017-07-24T03:27:51.339Z,85.00
2017-07-24T03:30:18.867Z,85.00
2017-07-24T03:32:46.433Z,84.60
2017-07-24T03:35:13.958Z,84.80
2017-07-24T03:37:41.542Z,85.50
2017-07-24T03:40:09.082Z,85.00
2017-07-24T03:42:36.636Z,85.70
2017-07-24T03:45:04.205Z,85.90
2017-07-24T03:47:31.742Z,86.30
2017-07-24T03:49:59.350Z,86.60
2017-07-24T03:52:26.883Z,87.60
2017-07-24T03:54:54.419Z,87.10
2017-07-24T03:57:21.986Z,88.00
2017-07-24T03:59:49.516Z,87.50
2017-07-24T04:02:17.094Z,87.70
2017-07-24T04:04:44.629Z,87.80
2017-07-24T04:07:12.167Z,87.70
2017-07-24T04:09:39.731Z,87.40
2017-07-24T04:12:07.282Z,88.20
2017-07-24T04:14:34.858Z,88.10
2017-07-24T04:17:02.398Z,87.90
2017-07-24T04:19:29.934Z,88.20
2017-07-24T04:21:57.497Z,88.00
2017-07-24T04:24:25.025Z,87.50
2017-07-24T04:26:52.590Z,87.30
2017-07-24T04:29:20.126Z,87.50
2017-07-24T04:31:47.687Z,87.80
2017-07-24T04:34:15.259Z,87.70
2017-07-24T04:36:42.786Z,88.30
2017-07-24T04:39:10.327Z,88.60
2017-07-24T04:41:37.900Z,88.40
2017-07-24T04:44:05.441Z,88.60
2017-07-24T04:46:32.980Z,88.00
2017-07-24T04:49:00.550Z,88.70
2017-07-24T04:51:28.088Z,89.60
2017-07-24T04:53:55.677Z,88.50
2017-07-24T04:56:23.211Z,88.50
2017-07-24T04:58:50.748Z,88.70
2017-07-24T05:01:18.318Z,88.20
2017-07-24T05:03:45.850Z,88.70
2017-07-24T05:06:13.383Z,88.70
2017-07-24T05:08:40.958Z,89.10
2017-07-24T05:11:08.494Z,89.20
2017-07-24T05:13:36.030Z,88.30
2017-07-24T05:16:03.605Z,88.50
2017-07-24T05:18:31.209Z,88.50
2017-07-24T05:20:58.742Z,88.90
2017-07-24T05:23:26.315Z,88.80
2017-07-24T05:25:53.840Z,88.40
2017-07-24T05:28:21.366Z,88.50
2017-07-24T05:30:48.947Z,88.70
2017-07-24T05:33:16.493Z,87.70
2017-07-24T05:35:44.039Z,88.40
2017-07-24T05:38:11.618Z,87.80
2017-07-24T05:40:39.151Z,88.60
2017-07-24T05:43:06.678Z,88.40
2017-07-24T05:45:34.245Z,88.50
2017-07-24T05:48:01.775Z,87.90
2017-07-24T05:50:29.343Z,88.50
2017-07-24T05:52:56.883Z,88.30
2017-07-24T05:55:24.463Z,89.00
2017-07-24T05:57:52.000Z,88.40
2017-07-24T06:00:19.533Z,88.30
2017-07-24T06:02:47.097Z,88.50
2017-07-24T06:05:14.671Z,88.80
2017-07-24T06:07:42.203Z,88.70
2017-07-24T06:10:09.735Z,87.20
2017-07-24T06:12:37.334Z,87.10
2017-07-24T06:15:04.859Z,86.00
2017-07-24T06:17:32.395Z,86.20
2017-07-24T06:19:59.963Z,86.90
2017-07-24T06:22:27.494Z,86.40
2017-07-24T06:24:55.067Z,87.10
2017-07-24T06:27:22.600Z,87.40
2017-07-24T06:29:50.129Z,86.00
2017-07-24T06:32:17.692Z,85.50
2017-07-24T06:34:45.253Z,86.10
2017-07-24T06:37:12.787Z,85.40
2017-07-24T06:39:40.371Z,85.80
2017-07-24T06:42:07.946Z,85.70
2017-07-24T06:44:35.480Z,86.00
2017-07-24T06:47:03.016Z,86.40
2017-07-24T06:49:30.577Z,86.40
2017-07-24T06:51:58.122Z,87.60
2017-07-24T06:54:25.699Z,86.90
2017-07-24T06:56:53.237Z,86.50
2017-07-24T06:59:20.765Z,86.60
2017-07-24T07:01:48.343Z,86.50
2017-07-24T07:04:15.891Z,87.20
2017-07-24T07:06:43.422Z,87.70
2017-07-24T07:09:14.347Z,87.80
2017-07-24T07:11:41.878Z,87.60
2017-07-24T07:14:09.435Z,88.40
2017-07-24T07:16:37.006Z,88.30
2017-07-24T07:19:04.548Z,88.30
2017-07-24T07:21:32.123Z,87.40
2017-07-24T07:23:59.656Z,86.60
2017-07-24T07:26:27.198Z,85.10
2017-07-24T07:28:54.758Z,82.70
2017-07-24T07:31:22.286Z,80.70
2017-07-24T07:33:49.858Z,81.90
2017-07-24T07:36:17.399Z,81.80
2017-07-24T07:38:44.930Z,80.70
2017-07-24T07:41:12.507Z,81.30
2017-07-24T07:43:40.282Z,81.60
2017-07-24T07:46:09.314Z,79.60
2017-07-24T07:48:36.883Z,79.20
2017-07-24T07:51:04.433Z,79.80
2017-07-24T07:53:31.967Z,78.90
2017-07-24T07:55:59.539Z,79.20
2017-07-24T07:58:27.066Z,78.50
2017-07-24T08:00:54.597Z,76.50
2017-07-24T08:03:22.170Z,77.90
2017-07-24T08:05:49.704Z,78.60
2017-07-24T08:08:17.238Z,80.10
2017-07-24T08:10:44.814Z,79.90
2017-07-24T08:13:12.391Z,78.80
2017-07-24T08:15:39.926Z,79.80
2017-07-24T08:18:07.459Z,79.60
2017-07-24T08:20:35.034Z,78.00
2017-07-24T08:23:02.585Z,78.90
2017-07-24T08:25:30.123Z,76.50
2017-07-24T08:27:57.698Z,78.60
2017-07-24T08:30:25.230Z,77.00
2017-07-24T08:32:53.315Z,74.90
2017-07-24T08:35:20.875Z,75.10
2017-07-24T08:37:48.410Z,75.20
2017-07-24T08:40:15.986Z,76.20
2017-07-24T08:42:43.515Z,76.50
2017-07-24T08:45:12.566Z,75.20
2017-07-24T08:47:40.142Z,75.50
2017-07-24T08:50:07.675Z,76.00
2017-07-24T08:52:35.214Z,75.80
2017-07-24T08:55:02.796Z,74.30
2017-07-24T08:57:31.800Z,73.60
2017-07-24T08:59:59.333Z,72.70
2017-07-24T09:02:26.909Z,71.60
2017-07-24T09:04:54.443Z,71.30
2017-07-24T09:07:21.971Z,70.10
2017-07-24T09:09:49.548Z,70.60
2017-07-24T09:12:17.080Z,69.40
2017-07-24T09:14:44.611Z,67.80
2017-07-24T09:17:12.180Z,66.80
2017-07-24T09:19:39.756Z,68.50
2017-07-24T09:22:07.287Z,68.80
2017-07-24T09:24:34.818Z,68.80
2017-07-24T09:27:02.978Z,65.90
2017-07-24T09:29:30.510Z,66.70
2017-07-24T09:31:58.038Z,67.10
2017-07-24T09:34:25.618Z,67.10
2017-07-24T09:36:53.147Z,69.90
2017-07-24T09:39:20.684Z,72.30
2017-07-24T09:41:48.253Z,73.70
2017-07-24T09:44:15.793Z,76.00
2017-07-24T09:46:43.367Z,75.50
2017-07-24T09:49:10.898Z,76.90
2017-07-24T09:51:38.482Z,76.10
2017-07-24T09:54:06.014Z,76.00
2017-07-24T09:56:33.559Z,76.90
2017-07-24T09:59:01.144Z,78.60
2017-07-24T10:01:28.680Z,77.70
2017-07-24T10:03:56.219Z,78.00
2017-07-24T10:06:24.624Z,79.00
2017-07-24T10:08:52.156Z,80.50
2017-07-24T10:11:19.687Z,80.80
2017-07-24T10:13:47.275Z,82.00
2017-07-24T10:16:14.829Z,82.80
2017-07-24T10:18:42.362Z,81.00
2017-07-24T10:21:09.923Z,81.40
2017-07-24T10:23:37.453Z,79.20
2017-07-24T10:26:05.984Z,79.00
2017-07-24T10:28:33.518Z,77.20
2017-07-24T10:31:01.051Z,78.30
2017-07-24T10:33:28.625Z,78.90
2017-07-24T10:35:56.159Z,79.40
2017-07-24T10:38:23.692Z,79.10
2017-07-24T10:40:51.273Z,79.70
2017-07-24T10:43:18.807Z,80.50
2017-07-24T10:45:46.334Z,81.30
2017-07-24T10:48:13.905Z,82.60
2017-07-24T10:50:41.434Z,83.30
2017-07-24T10:53:08.969Z,83.60
2017-07-24T10:55:36.531Z,82.90
2017-07-24T10:58:04.071Z,83.90
2017-07-24T11:00:31.654Z,83.30
2017-07-24T11:02:59.191Z,85.20
2017-07-24T11:05:26.733Z,84.60
2017-07-24T11:07:54.310Z,85.50
2017-07-24T11:10:21.886Z,84.80
2017-07-24T11:12:49.425Z,85.10
2017-07-24T11:15:16.958Z,85.30
2017-07-24T11:17:44.808Z,83.70
2017-07-24T11:20:12.343Z,83.60
2017-07-24T11:22:39.878Z,83.10
2017-07-24T11:25:07.450Z,83.20
2017-07-24T11:27:34.982Z,78.30
2017-07-24T11:30:02.511Z,78.80
2017-07-24T11:32:30.410Z,78.60
2017-07-24T11:34:57.950Z,79.90
2017-07-24T11:37:25.706Z,77.70
2017-07-24T11:39:53.280Z,78.10
2017-07-24T11:42:20.817Z,78.00
2017-07-24T11:44:48.353Z,78.60
2017-07-24T11:47:15.930Z,79.50
2017-07-24T11:49:43.462Z,80.10
2017-07-24T11:52:10.995Z,81.70
2017-07-24T11:54:39.129Z,80.20
2017-07-24T11:57:07.489Z,79.50
2017-07-24T11:59:35.061Z,79.70
2017-07-24T12:02:02.592Z,81.40
2017-07-24T12:04:30.906Z,77.90
2017-07-24T12:06:58.482Z,77.90
2017-07-24T12:09:26.070Z,74.10
2017-07-24T12:11:53.601Z,74.50
2017-07-24T12:14:21.351Z,71.50
2017-07-24T12:16:48.886Z,72.30
2017-07-24T12:19:17.322Z,72.00
2017-07-24T12:21:44.850Z,72.00
2017-07-24T12:24:12.379Z,71.90
2017-07-24T12:26:39.948Z,71.60
2017-07-24T12:29:07.486Z,73.90
2017-07-24T12:31:35.043Z,75.40
2017-07-24T12:34:02.624Z,75.80
2017-07-24T12:36:30.154Z,75.40
2017-07-24T12:38:57.683Z,75.80
2017-07-24T12:41:25.250Z,76.40
2017-07-24T12:43:52.784Z,77.30
2017-07-24T12:46:20.327Z,77.40
2017-07-24T12:48:47.905Z,78.50
2017-07-24T12:51:15.440Z,81.40
2017-07-24T12:53:42.973Z,82.30
2017-07-24T12:56:10.536Z,82.50
2017-07-24T12:58:38.071Z,84.20
2017-07-24T13:01:05.638Z,84.00
2017-07-24T13:03:33.171Z,86.00
2017-07-24T13:06:00.699Z,85.60
2017-07-24T13:08:28.273Z,86.00
2017-07-24T13:10:55.810Z,82.40
2017-07-24T13:13:24.234Z,83.50
2017-07-24T13:15:52.579Z,85.40
2017-07-24T13:18:21.025Z,85.40
2017-07-24T13:20:48.589Z,86.90
2017-07-24T13:23:16.126Z,87.10
2017-07-24T13:25:43.692Z,86.50
2017-07-24T13:28:11.222Z,86.80
2017-07-24T13:30:38.758Z,86.20
2017-07-24T13:33:06.340Z,86.10
2017-07-24T13:35:33.880Z,87.50
2017-07-24T13:38:01.424Z,88.00
2017-07-24T13:40:29.013Z,88.70
2017-07-24T13:42:56.554Z,89.50
2017-07-24T13:45:24.100Z,90.00
2017-07-24T13:47:51.688Z,90.20
2017-07-24T13:50:19.221Z,90.10
2017-07-24T13:52:46.758Z,90.50
2017-07-24T13:55:14.338Z,90.60
2017-07-24T13:57:41.882Z,90.00
2017-07-24T14:00:09.485Z,90.20
2017-07-24T14:02:37.033Z,89.70
2017-07-24T14:05:04.576Z,89.50
2017-07-24T14:07:32.171Z,89.40
2017-07-24T14:09:59.719Z,90.10
2017-07-24T14:12:27.297Z,90.30
2017-07-24T14:14:55.394Z,90.30
2017-07-24T14:33:16.746Z,87.30
2017-07-24T14:35:44.315Z,84.00
2017-07-24T14:43:10.521Z,81.60
2017-07-24T14:45:48.820Z,80.20
2017-07-24T14:50:57.428Z,77.80
2017-07-24T14:53:43.587Z,77.40
2017-07-24T14:59:14.062Z,80.70
2017-07-24T15:01:41.642Z,82.20
2017-07-24T15:04:09.198Z,82.10
2017-07-24T15:06:37.535Z,83.10
2017-07-24T15:09:05.190Z,81.70
2017-07-24T15:11:33.635Z,81.80
2017-07-24T15:19:59.027Z,71.50
2017-07-24T15:22:26.613Z,73.00
2017-07-24T15:24:54.163Z,72.50
2017-07-24T15:27:21.714Z,76.50
2017-07-24T15:29:49.285Z,74.90
2017-07-24T15:32:16.863Z,76.20
2017-07-24T15:34:44.390Z,75.80
2017-07-24T15:37:12.022Z,78.00
2017-07-24T15:39:39.753Z,78.10
2017-07-24T15:42:07.291Z,77.70
2017-07-24T15:44:34.947Z,79.30
2017-07-24T15:47:02.482Z,79.00
2017-07-24T15:49:30.023Z,80.30
2017-07-24T15:51:57.586Z,79.60
2017-07-24T15:54:25.134Z,78.80
2017-07-24T15:56:53.533Z,79.10
2017-07-24T15:59:21.116Z,80.00
2017-07-24T16:01:48.659Z,81.10
2017-07-24T16:04:17.594Z,82.80
2017-07-24T16:06:45.125Z,83.10
2017-07-24T16:09:12.689Z,82.40
2017-07-24T16:11:40.223Z,83.20
2017-07-24T16:14:07.797Z,82.50
2017-07-24T16:16:37.446Z,84.40
2017-07-24T16:19:05.467Z,84.10
2017-07-24T16:21:33.046Z,85.40
2017-07-24T16:24:00.670Z,84.60
2017-07-24T16:26:28.203Z,85.50
2017-07-24T16:28:55.779Z,86.00
2017-07-24T16:31:23.304Z,85.80
2017-07-24T16:33:50.834Z,86.50
2017-07-24T16:36:19.327Z,85.50
2017-07-24T16:38:46.854Z,85.80
2017-07-24T16:41:14.449Z,86.70
2017-07-24T16:43:42.022Z,87.50
2017-07-24T16:46:09.554Z,85.90
2017-07-24T16:48:37.092Z,85.80
2017-07-24T16:51:04.665Z,85.60
2017-07-24T16:53:32.226Z,85.80
2017-07-24T16:55:59.768Z,85.40
2017-07-24T16:58:27.666Z,86.20
2017-07-24T17:00:55.992Z,85.40
2017-07-24T17:03:44.075Z,85.60
2017-07-24T17:06:13.613Z,85.70
2017-07-24T17:08:41.203Z,85.00
2017-07-24T17:11:08.739Z,84.50
2017-07-24T17:13:36.358Z,85.00
2017-07-24T17:16:04.279Z,86.00
2017-07-24T17:18:32.943Z,86.20
2017-07-24T17:21:00.554Z,85.50
2017-07-24T17:23:28.126Z,85.00
2017-07-24T17:25:55.662Z,85.60
2017-07-24T17:28:23.244Z,85.80
2017-07-24T17:30:50.777Z,84.10
2017-07-24T17:33:18.311Z,84.50
2017-07-24T17:35:45.891Z,85.30
2017-07-24T17:38:13.448Z,85.40
2017-07-24T17:40:40.994Z,84.80
2017-07-24T17:43:08.673Z,83.60
2017-07-24T17:45:36.230Z,83.60
2017-07-24T17:48:03.757Z,82.80
2017-07-24T17:50:31.325Z,81.60
2017-07-24T17:52:58.853Z,81.00
2017-07-24T17:55:26.427Z,81.30
2017-07-24T17:57:53.959Z,81.70
2017-07-24T18:00:21.490Z,82.60
2017-07-24T18:02:49.065Z,83.00
2017-07-24T18:05:16.615Z,83.50
2017-07-24T18:07:44.423Z,83.30
2017-07-24T18:10:11.991Z,84.30
2017-07-24T18:12:40.064Z,84.00
2017-07-24T18:15:07.606Z,84.70
2017-07-24T18:17:35.171Z,84.90
2017-07-24T18:20:02.744Z,84.40
2017-07-24T18:22:30.280Z,83.90
2017-07-24T18:24:57.814Z,84.90
2017-07-24T18:27:25.372Z,83.90
2017-07-24T18:29:52.937Z,84.80
2017-07-24T18:32:21.352Z,85.30
2017-07-24T18:34:49.084Z,85.30
2017-07-24T18:37:18.042Z,85.50
2017-07-24T18:39:47.098Z,86.00
2017-07-24T18:42:15.222Z,85.90
2017-07-24T18:44:42.789Z,85.70
2017-07-24T18:47:10.322Z,85.40
2017-07-24T18:49:38.610Z,85.50
2017-07-24T18:52:07.022Z,84.90
2017-07-24T18:54:36.400Z,85.20
2017-07-24T18:57:04.895Z,85.20
2017-07-24T18:59:34.226Z,84.80
2017-07-24T19:02:01.790Z,85.80
2017-07-24T19:04:29.333Z,86.00
2017-07-24T19:06:57.223Z,85.70
2017-07-24T19:09:26.014Z,86.00
2017-07-24T19:11:53.546Z,86.10
2017-07-24T19:14:21.124Z,85.20
2017-07-24T19:16:48.649Z,85.40
2017-07-24T19:19:16.438Z,84.50
2017-07-24T19:21:44.327Z,85.20
2017-07-24T19:24:11.869Z,85.50
2017-07-24T19:29:11.538Z,85.60
2017-07-24T19:31:39.067Z,85.20
2017-07-24T19:34:06.675Z,86.00
2017-07-24T19:36:34.992Z,85.50
2017-07-24T19:39:02.544Z,85.50
2017-07-24T19:41:30.133Z,85.60
2017-07-24T19:43:58.056Z,86.40
2017-07-24T19:46:25.619Z,86.70
2017-07-24T19:48:53.189Z,86.10
2017-07-24T19:51:20.836Z,85.80
2017-07-24T19:53:48.498Z,86.40
2017-07-24T19:56:17.625Z,85.40
2017-07-24T19:58:46.013Z,85.10
2017-07-24T20:01:13.653Z,85.10
2017-07-24T20:03:41.198Z,85.30
2017-07-24T20:06:09.262Z,85.10
2017-07-24T20:08:36.825Z,85.30
2017-07-24T20:11:04.363Z,85.10
2017-07-24T20:13:31.934Z,84.90
2017-07-24T20:16:00.240Z,85.70
2017-07-24T20:18:27.830Z,85.60
2017-07-24T20:20:55.369Z,85.60
2017-07-24T20:23:22.902Z,86.30
2017-07-24T20:25:50.475Z,86.40
2017-07-24T20:28:18.994Z,85.90
2017-07-24T20:30:46.563Z,85.90
2017-07-24T20:33:14.560Z,85.90
2017-07-24T20:35:42.902Z,85.30
2017-07-24T20:38:10.450Z,85.30
2017-07-24T20:40:38.046Z,86.00
2017-07-24T20:43:05.621Z,86.40
2017-07-24T20:45:33.968Z,86.30
2017-07-24T20:48:02.314Z,86.60
2017-07-24T20:50:30.750Z,86.70
2017-07-24T20:53:01.553Z,87.00
2017-07-24T20:55:29.131Z,86.30
2017-07-24T20:57:56.676Z,86.20
2017-07-24T21:00:24.756Z,86.60
2017-07-24T21:02:52.310Z,86.20
2017-07-24T21:05:21.803Z,86.60
2017-07-24T21:07:49.387Z,86.40
2017-07-24T21:10:17.347Z,86.90
2017-07-24T21:12:45.257Z,87.10
2017-07-24T21:15:12.867Z,87.20
2017-07-24T21:17:40.469Z,87.40
2017-07-24T21:20:08.790Z,87.60
2017-07-24T21:22:36.362Z,87.50
2017-07-24T21:25:04.799Z,87.70
2017-07-24T21:27:33.257Z,87.70
2017-07-24T21:30:02.370Z,88.00
2017-07-24T21:32:30.678Z,87.50
2017-07-24T21:34:58.225Z,87.50
2017-07-24T21:37:25.798Z,87.80
2017-07-24T21:39:53.404Z,88.00
2017-07-24T21:42:20.941Z,88.30
2017-07-24T21:44:49.246Z,87.90
2017-07-24T21:47:17.602Z,89.30
2017-07-24T21:49:45.134Z,88.60
2017-07-24T21:52:12.698Z,88.50
2017-07-24T21:54:40.275Z,89.00
2017-07-24T21:57:07.812Z,89.10
2017-07-24T21:59:35.345Z,89.10
2017-07-24T22:02:02.914Z,89.50
2017-07-24T22:04:30.494Z,89.60
2017-07-24T22:06:58.357Z,89.90
2017-07-24T22:09:25.894Z,89.90
2017-07-24T22:11:53.817Z,89.50
2017-07-24T22:14:21.393Z,89.30
2017-07-24T22:16:48.930Z,89.00
2017-07-24T22:19:16.474Z,89.60
2017-07-24T22:21:44.093Z,89.50
2017-07-24T22:24:11.667Z,89.40
2017-07-24T22:26:45.856Z,89.30
2017-07-24T22:29:13.399Z,89.70
2017-07-24T22:31:40.942Z,90.10
2017-07-24T22:34:08.516Z,90.00
2017-07-24T22:36:36.126Z,90.10
2017-07-24T22:39:03.671Z,90.00
2017-07-24T22:41:31.206Z,90.00
2017-07-24T22:43:58.786Z,90.20
2017-07-24T22:46:27.122Z,90.20
2017-07-24T22:48:54.714Z,90.20
2017-07-24T22:51:23.021Z,90.20
2017-07-24T22:53:50.608Z,90.20
2017-07-24T22:56:18.146Z,90.00
2017-07-24T22:58:45.682Z,90.10
2017-07-24T23:01:13.268Z,90.20
2017-07-24T23:03:40.805Z,90.30
2017-07-24T23:06:08.351Z,90.40
2017-07-24T23:08:35.938Z,90.50
2017-07-24T23:11:03.474Z,90.50
2017-07-24T23:13:31.779Z,90.50
2017-07-24T23:15:59.351Z,90.40
2017-07-24T23:18:26.923Z,90.50
2017-07-24T23:20:54.514Z,90.50
2017-07-24T23:23:22.054Z,90.40
2017-07-24T23:25:49.590Z,90.40
2017-07-24T23:28:17.184Z,90.50
2017-07-24T23:30:44.727Z,90.50
2017-07-24T23:33:12.263Z,90.50
2017-07-24T23:35:39.834Z,90.40
2017-07-24T23:38:07.374Z,90.30
2017-07-24T23:40:35.854Z,90.30
2017-07-24T23:43:03.399Z,90.20
2017-07-24T23:45:30.974Z,90.30
2017-07-24T23:47:58.542Z,90.30
2017-07-24T23:50:26.080Z,90.10
2017-07-24T23:52:53.669Z,90.10
2017-07-24T23:55:21.210Z,90.30
2017-07-24T23:57:48.747Z,90.30
